Main page
METAR-TAF:

METAR-TAF

Airports :

Rafha Domestic Airport

Rafha, Saudi Arabia

latitude: 29-37N, longitude: 043-29E, elevation: 449 m

Current weather observation

The report was made 57 minutes ago, at 08:00 UTC
Wind 13 kt from the North/Northwest
Temperature 31°C
Humidity 26%
Pressure 1011 hPa
Visibility 10 km or more
no clouds below 1500 m and no cumulonimbus

METAR: OERF 240800Z 34013KT CAVOK 31/09 Q1011 NOSIG

Time: 11:57 (08:57 UTC)

Forecast

The report was made 9 hours and 57 minutes ago, at 23:00 UTC
Forecast valid from 24 at 00 UTC to 25 at 06 UTC
Wind 3 kt from variable directions
Visibility 10 km or more
no clouds below 1500 m and no cumulonimbus
Becoming
from 24 at 06 UTC to 24 at 08 UTC
Wind 10 kt from the North
Becoming
from 24 at 20 UTC to 24 at 22 UTC
Wind 3 kt from variable directions

TAF: OERF 232300Z 2400/2506 VRB03KT CAVOK BECMG 2406/2408 35010KT BECMG 2420/2422 VRB03KT

Weather observations and forecasts of more than 4000 airports (METAR and TAF reports).

The available stations are represented by yellow and red dots on the map.

Hover mouse over dot to see the name of the station.

Then click to see weather observations and forecasts.

To change the map : click on the green buttons with a black cross to zoom in, on the green button with a dash to zoom out, or on the green arrows for adjacent maps.


METAR-TAF: